sensor_id;sensor_type;location;lat;lon;timestamp;P1;durP1;ratioP1;P2;durP2;ratioP2
75061;SDS011;63641;46.526;24.612;2023-07-29T00:01:36;2.47;;;2.28;;
75061;SDS011;63641;46.526;24.612;2023-07-29T00:04:03;3.40;;;2.38;;
75061;SDS011;63641;46.526;24.612;2023-07-29T00:06:31;2.47;;;2.28;;
75061;SDS011;63641;46.526;24.612;2023-07-29T00:08:58;2.85;;;2.63;;
75061;SDS011;63641;46.526;24.612;2023-07-29T00:11:25;2.63;;;2.42;;
75061;SDS011;63641;46.526;24.612;2023-07-29T00:13:52;3.22;;;2.92;;
75061;SDS011;63641;46.526;24.612;2023-07-29T00:16:19;3.13;;;2.88;;
75061;SDS011;63641;46.526;24.612;2023-07-29T00:18:48;4.57;;;2.70;;
75061;SDS011;63641;46.526;24.612;2023-07-29T00:21:15;3.10;;;2.47;;
75061;SDS011;63641;46.526;24.612;2023-07-29T00:23:42;2.40;;;2.20;;
75061;SDS011;63641;46.526;24.612;2023-07-29T00:26:09;2.95;;;2.72;;
75061;SDS011;63641;46.526;24.612;2023-07-29T00:28:35;2.78;;;2.58;;
75061;SDS011;63641;46.526;24.612;2023-07-29T00:31:02;3.40;;;2.38;;
75061;SDS011;63641;46.526;24.612;2023-07-29T00:33:29;2.90;;;2.40;;
75061;SDS011;63641;46.526;24.612;2023-07-29T00:35:56;2.80;;;2.60;;
75061;SDS011;63641;46.526;24.612;2023-07-29T00:38:23;3.40;;;2.50;;
75061;SDS011;63641;46.526;24.612;2023-07-29T00:40:49;3.75;;;3.08;;
75061;SDS011;63641;46.526;24.612;2023-07-29T00:43:16;4.88;;;3.00;;
75061;SDS011;63641;46.526;24.612;2023-07-29T00:45:43;2.60;;;2.40;;
75061;SDS011;63641;46.526;24.612;2023-07-29T00:48:11;2.85;;;2.63;;
75061;SDS011;63641;46.526;24.612;2023-07-29T00:50:38;5.38;;;2.80;;
75061;SDS011;63641;46.526;24.612;2023-07-29T00:53:06;2.55;;;2.35;;
75061;SDS011;63641;46.526;24.612;2023-07-29T00:55:33;2.50;;;2.30;;
75061;SDS011;63641;46.526;24.612;2023-07-29T00:58:00;2.63;;;2.42;;
75061;SDS011;63641;46.526;24.612;2023-07-29T01:00:27;3.40;;;2.40;;
75061;SDS011;63641;46.526;24.612;2023-07-29T01:02:53;3.95;;;2.45;;
75061;SDS011;63641;46.526;24.612;2023-07-29T01:05:21;2.75;;;2.35;;
75061;SDS011;63641;46.526;24.612;2023-07-29T01:07:53;3.17;;;2.60;;
75061;SDS011;63641;46.526;24.612;2023-07-29T01:10:54;3.55;;;2.42;;
75061;SDS011;63641;46.526;24.612;2023-07-29T01:13:33;2.42;;;2.22;;
75061;SDS011;63641;46.526;24.612;2023-07-29T01:16:20;2.88;;;2.58;;
75061;SDS011;63641;46.526;24.612;2023-07-29T01:18:52;3.03;;;2.55;;
75061;SDS011;63641;46.526;24.612;2023-07-29T01:21:21;2.90;;;2.63;;
75061;SDS011;63641;46.526;24.612;2023-07-29T01:23:53;3.25;;;2.70;;
75061;SDS011;63641;46.526;24.612;2023-07-29T01:26:25;2.60;;;2.38;;
75061;SDS011;63641;46.526;24.612;2023-07-29T01:28:53;4.65;;;3.50;;
75061;SDS011;63641;46.526;24.612;2023-07-29T01:31:23;3.83;;;2.40;;
75061;SDS011;63641;46.526;24.612;2023-07-29T01:36:39;3.00;;;2.50;;
75061;SDS011;63641;46.526;24.612;2023-07-29T01:39:12;2.70;;;2.50;;
75061;SDS011;63641;46.526;24.612;2023-07-29T01:41:43;3.53;;;3.17;;
75061;SDS011;63641;46.526;24.612;2023-07-29T01:44:11;2.88;;;2.58;;
75061;SDS011;63641;46.526;24.612;2023-07-29T01:46:38;3.22;;;2.95;;
75061;SDS011;63641;46.526;24.612;2023-07-29T01:49:05;2.88;;;2.40;;
75061;SDS011;63641;46.526;24.612;2023-07-29T01:51:32;2.45;;;2.25;;
75061;SDS011;63641;46.526;24.612;2023-07-29T01:53:59;2.85;;;2.65;;
75061;SDS011;63641;46.526;24.612;2023-07-29T01:56:26;4.15;;;2.60;;
75061;SDS011;63641;46.526;24.612;2023-07-29T01:58:53;2.92;;;2.40;;
75061;SDS011;63641;46.526;24.612;2023-07-29T02:01:19;3.65;;;2.70;;
75061;SDS011;63641;46.526;24.612;2023-07-29T02:03:46;4.03;;;2.70;;
75061;SDS011;63641;46.526;24.612;2023-07-29T02:06:13;6.55;;;2.40;;
75061;SDS011;63641;46.526;24.612;2023-07-29T02:08:39;2.38;;;2.17;;
75061;SDS011;63641;46.526;24.612;2023-07-29T02:11:07;3.08;;;2.42;;
75061;SDS011;63641;46.526;24.612;2023-07-29T02:13:33;2.42;;;2.22;;
75061;SDS011;63641;46.526;24.612;2023-07-29T02:16:00;2.67;;;2.28;;
75061;SDS011;63641;46.526;24.612;2023-07-29T02:18:27;3.67;;;2.42;;
75061;SDS011;63641;46.526;24.612;2023-07-29T02:20:54;2.72;;;2.53;;
75061;SDS011;63641;46.526;24.612;2023-07-29T02:23:20;2.90;;;2.65;;
75061;SDS011;63641;46.526;24.612;2023-07-29T02:25:47;2.80;;;2.50;;
75061;SDS011;63641;46.526;24.612;2023-07-29T02:28:14;3.10;;;2.20;;
75061;SDS011;63641;46.526;24.612;2023-07-29T02:30:41;2.50;;;2.30;;
75061;SDS011;63641;46.526;24.612;2023-07-29T02:33:10;2.70;;;2.50;;
75061;SDS011;63641;46.526;24.612;2023-07-29T02:35:38;3.15;;;2.85;;
75061;SDS011;63641;46.526;24.612;2023-07-29T02:38:04;2.72;;;2.53;;
75061;SDS011;63641;46.526;24.612;2023-07-29T02:40:31;3.08;;;2.78;;
75061;SDS011;63641;46.526;24.612;2023-07-29T02:42:58;2.60;;;2.40;;
75061;SDS011;63641;46.526;24.612;2023-07-29T02:45:24;3.10;;;2.85;;
75061;SDS011;63641;46.526;24.612;2023-07-29T02:47:51;3.58;;;2.65;;
75061;SDS011;63641;46.526;24.612;2023-07-29T02:50:19;2.70;;;2.50;;
75061;SDS011;63641;46.526;24.612;2023-07-29T02:52:46;2.88;;;2.60;;
75061;SDS011;63641;46.526;24.612;2023-07-29T02:55:16;2.55;;;2.25;;
75061;SDS011;63641;46.526;24.612;2023-07-29T02:57:43;2.45;;;2.25;;
75061;SDS011;63641;46.526;24.612;2023-07-29T03:00:10;3.47;;;2.65;;
75061;SDS011;63641;46.526;24.612;2023-07-29T03:02:37;3.05;;;2.75;;
75061;SDS011;63641;46.526;24.612;2023-07-29T03:05:04;2.47;;;2.30;;
75061;SDS011;63641;46.526;24.612;2023-07-29T03:07:31;3.20;;;2.53;;
75061;SDS011;63641;46.526;24.612;2023-07-29T03:09:57;2.85;;;2.65;;
75061;SDS011;63641;46.526;24.612;2023-07-29T03:12:24;2.78;;;2.22;;
75061;SDS011;63641;46.526;24.612;2023-07-29T03:14:51;2.88;;;2.60;;
75061;SDS011;63641;46.526;24.612;2023-07-29T03:17:18;2.72;;;2.53;;
75061;SDS011;63641;46.526;24.612;2023-07-29T03:19:44;3.03;;;2.60;;
75061;SDS011;63641;46.526;24.612;2023-07-29T03:22:11;2.47;;;2.28;;
75061;SDS011;63641;46.526;24.612;2023-07-29T03:24:38;2.40;;;2.20;;
75061;SDS011;63641;46.526;24.612;2023-07-29T03:27:05;3.38;;;2.47;;
75061;SDS011;63641;46.526;24.612;2023-07-29T03:29:31;5.00;;;2.40;;
75061;SDS011;63641;46.526;24.612;2023-07-29T03:31:58;2.60;;;2.40;;
75061;SDS011;63641;46.526;24.612;2023-07-29T03:34:25;2.53;;;2.33;;
75061;SDS011;63641;46.526;24.612;2023-07-29T03:36:51;2.50;;;2.30;;
75061;SDS011;63641;46.526;24.612;2023-07-29T03:39:18;3.10;;;2.30;;
75061;SDS011;63641;46.526;24.612;2023-07-29T03:41:49;2.70;;;2.50;;
75061;SDS011;63641;46.526;24.612;2023-07-29T03:44:15;3.50;;;2.72;;
75061;SDS011;63641;46.526;24.612;2023-07-29T03:46:42;2.78;;;2.50;;
75061;SDS011;63641;46.526;24.612;2023-07-29T03:49:09;2.70;;;2.50;;
75061;SDS011;63641;46.526;24.612;2023-07-29T03:51:35;2.83;;;2.63;;
75061;SDS011;63641;46.526;24.612;2023-07-29T03:54:02;3.60;;;2.92;;
75061;SDS011;63641;46.526;24.612;2023-07-29T03:56:29;4.22;;;2.97;;
75061;SDS011;63641;46.526;24.612;2023-07-29T03:59:02;2.90;;;2.47;;
75061;SDS011;63641;46.526;24.612;2023-07-29T04:01:30;3.45;;;2.45;;
75061;SDS011;63641;46.526;24.612;2023-07-29T04:03:57;3.05;;;2.60;;
75061;SDS011;63641;46.526;24.612;2023-07-29T04:06:25;3.25;;;2.85;;
75061;SDS011;63641;46.526;24.612;2023-07-29T04:08:52;3.20;;;2.67;;
75061;SDS011;63641;46.526;24.612;2023-07-29T04:11:19;2.47;;;2.28;;
75061;SDS011;63641;46.526;24.612;2023-07-29T04:13:46;2.60;;;2.40;;
75061;SDS011;63641;46.526;24.612;2023-07-29T04:16:13;4.32;;;2.70;;
75061;SDS011;63641;46.526;24.612;2023-07-29T04:18:39;3.38;;;2.60;;
75061;SDS011;63641;46.526;24.612;2023-07-29T04:21:06;2.65;;;2.45;;
75061;SDS011;63641;46.526;24.612;2023-07-29T04:23:33;2.85;;;2.35;;
75061;SDS011;63641;46.526;24.612;2023-07-29T04:26:00;3.65;;;2.30;;
75061;SDS011;63641;46.526;24.612;2023-07-29T04:28:26;2.90;;;2.58;;
75061;SDS011;63641;46.526;24.612;2023-07-29T04:30:53;4.38;;;2.58;;
75061;SDS011;63641;46.526;24.612;2023-07-29T04:33:21;3.25;;;2.67;;
75061;SDS011;63641;46.526;24.612;2023-07-29T04:35:48;4.90;;;2.88;;
75061;SDS011;63641;46.526;24.612;2023-07-29T04:38:15;2.85;;;2.65;;
75061;SDS011;63641;46.526;24.612;2023-07-29T04:40:41;3.30;;;2.58;;
75061;SDS011;63641;46.526;24.612;2023-07-29T04:43:08;3.08;;;2.58;;
75061;SDS011;63641;46.526;24.612;2023-07-29T04:45:35;3.13;;;2.65;;
75061;SDS011;63641;46.526;24.612;2023-07-29T04:48:01;2.83;;;2.63;;
75061;SDS011;63641;46.526;24.612;2023-07-29T04:50:28;5.57;;;2.53;;
75061;SDS011;63641;46.526;24.612;2023-07-29T04:52:55;2.97;;;2.67;;
75061;SDS011;63641;46.526;24.612;2023-07-29T04:55:22;3.25;;;2.80;;
75061;SDS011;63641;46.526;24.612;2023-07-29T04:57:49;2.90;;;2.55;;
75061;SDS011;63641;46.526;24.612;2023-07-29T05:00:16;3.05;;;2.75;;
75061;SDS011;63641;46.526;24.612;2023-07-29T05:02:42;3.25;;;2.95;;
75061;SDS011;63641;46.526;24.612;2023-07-29T05:05:09;2.80;;;2.60;;
75061;SDS011;63641;46.526;24.612;2023-07-29T05:08:58;3.70;;;3.30;;
75061;SDS011;63641;46.526;24.612;2023-07-29T05:11:25;4.93;;;3.53;;
75061;SDS011;63641;46.526;24.612;2023-07-29T05:13:51;4.35;;;3.65;;
75061;SDS011;63641;46.526;24.612;2023-07-29T05:16:18;5.45;;;4.05;;
75061;SDS011;63641;46.526;24.612;2023-07-29T05:18:45;5.65;;;3.80;;
75061;SDS011;63641;46.526;24.612;2023-07-29T05:21:11;3.80;;;3.40;;
75061;SDS011;63641;46.526;24.612;2023-07-29T05:23:40;5.80;;;3.55;;
75061;SDS011;63641;46.526;24.612;2023-07-29T05:26:07;6.22;;;3.78;;
75061;SDS011;63641;46.526;24.612;2023-07-29T05:28:34;4.25;;;3.85;;
75061;SDS011;63641;46.526;24.612;2023-07-29T05:31:01;5.32;;;3.55;;
75061;SDS011;63641;46.526;24.612;2023-07-29T05:33:28;3.83;;;3.40;;
75061;SDS011;63641;46.526;24.612;2023-07-29T05:35:55;6.05;;;4.13;;
75061;SDS011;63641;46.526;24.612;2023-07-29T05:38:21;4.53;;;4.10;;
75061;SDS011;63641;46.526;24.612;2023-07-29T05:40:48;4.60;;;4.20;;
75061;SDS011;63641;46.526;24.612;2023-07-29T05:43:15;6.25;;;4.05;;
75061;SDS011;63641;46.526;24.612;2023-07-29T05:45:42;4.95;;;3.70;;
75061;SDS011;63641;46.526;24.612;2023-07-29T05:48:08;4.00;;;3.70;;
75061;SDS011;63641;46.526;24.612;2023-07-29T05:50:35;4.97;;;3.78;;
75061;SDS011;63641;46.526;24.612;2023-07-29T05:53:02;4.90;;;4.00;;
75061;SDS011;63641;46.526;24.612;2023-07-29T05:55:28;5.30;;;3.83;;
75061;SDS011;63641;46.526;24.612;2023-07-29T05:57:56;4.13;;;3.72;;
75061;SDS011;63641;46.526;24.612;2023-07-29T06:00:24;4.88;;;3.22;;
75061;SDS011;63641;46.526;24.612;2023-07-29T06:02:50;4.35;;;2.97;;
75061;SDS011;63641;46.526;24.612;2023-07-29T06:05:17;4.72;;;3.30;;
75061;SDS011;63641;46.526;24.612;2023-07-29T06:07:44;3.95;;;2.90;;
75061;SDS011;63641;46.526;24.612;2023-07-29T06:10:15;3.50;;;3.20;;
75061;SDS011;63641;46.526;24.612;2023-07-29T06:12:45;3.75;;;3.25;;
75061;SDS011;63641;46.526;24.612;2023-07-29T06:15:12;3.85;;;2.88;;
75061;SDS011;63641;46.526;24.612;2023-07-29T06:17:40;4.68;;;2.90;;
75061;SDS011;63641;46.526;24.612;2023-07-29T06:20:07;3.58;;;2.47;;
75061;SDS011;63641;46.526;24.612;2023-07-29T06:22:34;3.20;;;2.83;;
75061;SDS011;63641;46.526;24.612;2023-07-29T06:25:01;3.38;;;2.75;;
75061;SDS011;63641;46.526;24.612;2023-07-29T06:27:28;3.22;;;2.92;;
75061;SDS011;63641;46.526;24.612;2023-07-29T06:29:54;4.03;;;2.58;;
75061;SDS011;63641;46.526;24.612;2023-07-29T06:32:21;2.67;;;2.47;;
75061;SDS011;63641;46.526;24.612;2023-07-29T06:34:48;2.85;;;2.55;;
75061;SDS011;63641;46.526;24.612;2023-07-29T06:37:14;3.10;;;2.40;;
75061;SDS011;63641;46.526;24.612;2023-07-29T06:39:41;2.40;;;2.20;;
75061;SDS011;63641;46.526;24.612;2023-07-29T06:42:08;2.70;;;2.10;;
75061;SDS011;63641;46.526;24.612;2023-07-29T06:44:35;2.42;;;2.22;;
75061;SDS011;63641;46.526;24.612;2023-07-29T06:47:01;3.47;;;2.72;;
75061;SDS011;63641;46.526;24.612;2023-07-29T06:49:28;3.20;;;2.97;;
75061;SDS011;63641;46.526;24.612;2023-07-29T06:51:55;2.70;;;2.50;;
75061;SDS011;63641;46.526;24.612;2023-07-29T06:54:25;4.20;;;2.38;;
75061;SDS011;63641;46.526;24.612;2023-07-29T06:56:54;4.97;;;2.78;;
75061;SDS011;63641;46.526;24.612;2023-07-29T06:59:21;2.20;;;2.00;;
75061;SDS011;63641;46.526;24.612;2023-07-29T07:01:49;4.38;;;2.30;;
75061;SDS011;63641;46.526;24.612;2023-07-29T07:04:15;2.50;;;2.22;;
75061;SDS011;63641;46.526;24.612;2023-07-29T07:06:42;2.47;;;2.08;;
75061;SDS011;63641;46.526;24.612;2023-07-29T07:09:09;3.27;;;2.37;;
75061;SDS011;63641;46.526;24.612;2023-07-29T07:11:35;2.17;;;1.98;;
75061;SDS011;63641;46.526;24.612;2023-07-29T07:14:02;2.50;;;2.30;;
75061;SDS011;63641;46.526;24.612;2023-07-29T07:16:29;3.70;;;2.08;;
75061;SDS011;63641;46.526;24.612;2023-07-29T07:18:56;2.78;;;2.30;;
75061;SDS011;63641;46.526;24.612;2023-07-29T07:21:23;2.58;;;1.90;;
75061;SDS011;63641;46.526;24.612;2023-07-29T07:23:50;3.88;;;2.30;;
75061;SDS011;63641;46.526;24.612;2023-07-29T07:26:17;4.18;;;2.20;;
75061;SDS011;63641;46.526;24.612;2023-07-29T07:28:43;2.88;;;2.08;;
75061;SDS011;63641;46.526;24.612;2023-07-29T07:31:10;4.97;;;2.47;;
75061;SDS011;63641;46.526;24.612;2023-07-29T07:33:37;2.42;;;2.13;;
75061;SDS011;63641;46.526;24.612;2023-07-29T07:36:04;2.03;;;1.80;;
75061;SDS011;63641;46.526;24.612;2023-07-29T07:38:31;4.80;;;1.90;;
75061;SDS011;63641;46.526;24.612;2023-07-29T07:40:57;2.03;;;1.63;;
75061;SDS011;63641;46.526;24.612;2023-07-29T07:43:24;2.45;;;2.00;;
75061;SDS011;63641;46.526;24.612;2023-07-29T07:45:51;3.05;;;2.20;;
75061;SDS011;63641;46.526;24.612;2023-07-29T07:48:23;2.72;;;2.28;;
75061;SDS011;63641;46.526;24.612;2023-07-29T07:50:50;2.83;;;1.90;;
75061;SDS011;63641;46.526;24.612;2023-07-29T07:53:17;2.25;;;2.05;;
75061;SDS011;63641;46.526;24.612;2023-07-29T07:55:44;4.97;;;1.92;;
75061;SDS011;63641;46.526;24.612;2023-07-29T07:58:10;1.90;;;1.80;;
75061;SDS011;63641;46.526;24.612;2023-07-29T08:00:37;2.35;;;2.15;;
75061;SDS011;63641;46.526;24.612;2023-07-29T08:03:04;2.55;;;2.05;;
75061;SDS011;63641;46.526;24.612;2023-07-29T08:05:30;4.13;;;2.00;;
75061;SDS011;63641;46.526;24.612;2023-07-29T08:07:58;2.33;;;2.13;;
75061;SDS011;63641;46.526;24.612;2023-07-29T08:10:25;2.47;;;2.08;;
75061;SDS011;63641;46.526;24.612;2023-07-29T08:12:52;2.75;;;2.10;;
75061;SDS011;63641;46.526;24.612;2023-07-29T08:15:18;2.30;;;2.10;;
75061;SDS011;63641;46.526;24.612;2023-07-29T08:17:45;2.45;;;1.70;;
75061;SDS011;63641;46.526;24.612;2023-07-29T08:20:12;2.42;;;1.98;;
75061;SDS011;63641;46.526;24.612;2023-07-29T08:22:39;3.28;;;1.88;;
75061;SDS011;63641;46.526;24.612;2023-07-29T08:25:06;1.98;;;1.85;;
75061;SDS011;63641;46.526;24.612;2023-07-29T08:27:33;2.00;;;1.90;;
75061;SDS011;63641;46.526;24.612;2023-07-29T08:30:00;3.22;;;2.03;;
75061;SDS011;63641;46.526;24.612;2023-07-29T08:32:27;1.92;;;1.70;;
75061;SDS011;63641;46.526;24.612;2023-07-29T08:34:54;3.35;;;1.88;;
75061;SDS011;63641;46.526;24.612;2023-07-29T08:37:21;2.35;;;2.13;;
75061;SDS011;63641;46.526;24.612;2023-07-29T08:39:48;3.15;;;1.80;;
75061;SDS011;63641;46.526;24.612;2023-07-29T08:42:15;2.13;;;1.80;;
75061;SDS011;63641;46.526;24.612;2023-07-29T08:44:46;2.08;;;1.90;;
75061;SDS011;63641;46.526;24.612;2023-07-29T08:47:17;2.58;;;2.15;;
75061;SDS011;63641;46.526;24.612;2023-07-29T08:49:45;2.60;;;2.20;;
75061;SDS011;63641;46.526;24.612;2023-07-29T08:52:12;3.28;;;2.15;;
75061;SDS011;63641;46.526;24.612;2023-07-29T08:54:40;2.00;;;1.80;;
75061;SDS011;63641;46.526;24.612;2023-07-29T08:57:07;1.80;;;1.70;;
75061;SDS011;63641;46.526;24.612;2023-07-29T08:59:35;3.10;;;1.98;;
75061;SDS011;63641;46.526;24.612;2023-07-29T09:02:02;1.95;;;1.77;;
75061;SDS011;63641;46.526;24.612;2023-07-29T09:04:28;2.42;;;1.65;;
75061;SDS011;63641;46.526;24.612;2023-07-29T09:06:55;2.28;;;2.08;;
75061;SDS011;63641;46.526;24.612;2023-07-29T09:09:22;3.80;;;1.85;;
75061;SDS011;63641;46.526;24.612;2023-07-29T09:11:49;3.75;;;2.05;;
75061;SDS011;63641;46.526;24.612;2023-07-29T09:14:16;4.03;;;2.63;;
75061;SDS011;63641;46.526;24.612;2023-07-29T09:16:43;2.70;;;1.92;;
75061;SDS011;63641;46.526;24.612;2023-07-29T09:19:10;1.98;;;1.83;;
75061;SDS011;63641;46.526;24.612;2023-07-29T09:21:40;2.55;;;2.03;;
75061;SDS011;63641;46.526;24.612;2023-07-29T09:24:08;2.22;;;1.88;;
75061;SDS011;63641;46.526;24.612;2023-07-29T09:26:35;2.40;;;2.00;;
75061;SDS011;63641;46.526;24.612;2023-07-29T09:29:03;2.47;;;1.88;;
75061;SDS011;63641;46.526;24.612;2023-07-29T09:31:30;2.92;;;1.80;;
75061;SDS011;63641;46.526;24.612;2023-07-29T09:34:01;2.47;;;2.00;;
75061;SDS011;63641;46.526;24.612;2023-07-29T09:36:30;2.22;;;2.03;;
75061;SDS011;63641;46.526;24.612;2023-07-29T09:38:59;3.45;;;1.98;;
75061;SDS011;63641;46.526;24.612;2023-07-29T09:41:26;3.17;;;1.90;;
75061;SDS011;63641;46.526;24.612;2023-07-29T09:43:58;3.30;;;1.83;;
75061;SDS011;63641;46.526;24.612;2023-07-29T09:46:34;2.35;;;1.83;;
75061;SDS011;63641;46.526;24.612;2023-07-29T09:49:03;2.55;;;1.90;;
75061;SDS011;63641;46.526;24.612;2023-07-29T09:51:30;2.80;;;1.88;;
75061;SDS011;63641;46.526;24.612;2023-07-29T09:53:57;1.88;;;1.70;;
75061;SDS011;63641;46.526;24.612;2023-07-29T09:56:29;1.83;;;1.52;;
75061;SDS011;63641;46.526;24.612;2023-07-29T09:58:55;2.13;;;1.60;;
75061;SDS011;63641;46.526;24.612;2023-07-29T10:01:23;2.10;;;1.83;;
75061;SDS011;63641;46.526;24.612;2023-07-29T10:03:50;1.85;;;1.75;;
75061;SDS011;63641;46.526;24.612;2023-07-29T10:06:18;2.00;;;1.67;;
75061;SDS011;63641;46.526;24.612;2023-07-29T10:08:46;1.65;;;1.55;;
75061;SDS011;63641;46.526;24.612;2023-07-29T10:11:14;2.30;;;1.85;;
75061;SDS011;63641;46.526;24.612;2023-07-29T10:13:41;2.15;;;1.70;;
75061;SDS011;63641;46.526;24.612;2023-07-29T10:16:21;2.55;;;1.90;;
75061;SDS011;63641;46.526;24.612;2023-07-29T10:18:50;2.33;;;1.52;;
75061;SDS011;63641;46.526;24.612;2023-07-29T10:21:19;2.88;;;1.77;;
75061;SDS011;63641;46.526;24.612;2023-07-29T10:23:49;2.65;;;1.73;;
75061;SDS011;63641;46.526;24.612;2023-07-29T10:26:16;3.33;;;1.60;;
75061;SDS011;63641;46.526;24.612;2023-07-29T10:28:49;1.73;;;1.63;;
75061;SDS011;63641;46.526;24.612;2023-07-29T10:33:46;1.92;;;1.77;;
75061;SDS011;63641;46.526;24.612;2023-07-29T10:36:14;6.00;;;2.00;;
75061;SDS011;63641;46.526;24.612;2023-07-29T10:38:41;5.50;;;1.83;;
75061;SDS011;63641;46.526;24.612;2023-07-29T10:41:08;2.67;;;1.92;;
75061;SDS011;63641;46.526;24.612;2023-07-29T10:43:38;4.10;;;2.08;;
75061;SDS011;63641;46.526;24.612;2023-07-29T10:46:21;2.55;;;1.70;;
75061;SDS011;63641;46.526;24.612;2023-07-29T10:48:56;2.17;;;1.73;;
75061;SDS011;63641;46.526;24.612;2023-07-29T10:51:30;1.75;;;1.65;;
75061;SDS011;63641;46.526;24.612;2023-07-29T10:54:09;2.10;;;1.90;;
75061;SDS011;63641;46.526;24.612;2023-07-29T10:56:41;5.28;;;1.60;;
75061;SDS011;63641;46.526;24.612;2023-07-29T11:01:41;2.20;;;2.00;;
75061;SDS011;63641;46.526;24.612;2023-07-29T11:09:41;2.03;;;1.80;;
75061;SDS011;63641;46.526;24.612;2023-07-29T11:12:37;1.83;;;1.63;;
75061;SDS011;63641;46.526;24.612;2023-07-29T11:17:41;3.75;;;1.98;;
75061;SDS011;63641;46.526;24.612;2023-07-29T11:20:10;3.08;;;1.80;;
75061;SDS011;63641;46.526;24.612;2023-07-29T11:22:38;2.10;;;1.67;;
75061;SDS011;63641;46.526;24.612;2023-07-29T11:25:06;2.55;;;1.42;;
75061;SDS011;63641;46.526;24.612;2023-07-29T11:27:35;2.60;;;1.70;;
75061;SDS011;63641;46.526;24.612;2023-07-29T11:30:04;2.05;;;1.90;;
75061;SDS011;63641;46.526;24.612;2023-07-29T11:32:33;4.93;;;2.08;;
75061;SDS011;63641;46.526;24.612;2023-07-29T11:35:04;1.75;;;1.63;;
75061;SDS011;63641;46.526;24.612;2023-07-29T11:37:34;2.13;;;1.92;;
75061;SDS011;63641;46.526;24.612;2023-07-29T11:40:01;2.80;;;1.90;;
75061;SDS011;63641;46.526;24.612;2023-07-29T11:42:28;2.25;;;1.70;;
75061;SDS011;63641;46.526;24.612;2023-07-29T11:44:58;2.42;;;1.77;;
75061;SDS011;63641;46.526;24.612;2023-07-29T11:47:26;2.42;;;1.73;;
75061;SDS011;63641;46.526;24.612;2023-07-29T11:49:53;3.40;;;1.85;;
75061;SDS011;63641;46.526;24.612;2023-07-29T11:52:19;2.33;;;1.85;;
75061;SDS011;63641;46.526;24.612;2023-07-29T11:54:47;1.88;;;1.70;;
75061;SDS011;63641;46.526;24.612;2023-07-29T11:57:15;1.77;;;1.60;;
75061;SDS011;63641;46.526;24.612;2023-07-29T11:59:44;6.60;;;1.75;;
75061;SDS011;63641;46.526;24.612;2023-07-29T12:02:15;2.78;;;1.52;;
75061;SDS011;63641;46.526;24.612;2023-07-29T12:04:44;1.73;;;1.63;;
75061;SDS011;63641;46.526;24.612;2023-07-29T12:07:13;2.88;;;2.35;;
75061;SDS011;63641;46.526;24.612;2023-07-29T12:09:41;4.35;;;1.90;;
75061;SDS011;63641;46.526;24.612;2023-07-29T12:12:09;4.20;;;2.03;;
75061;SDS011;63641;46.526;24.612;2023-07-29T12:14:35;2.40;;;1.80;;
75061;SDS011;63641;46.526;24.612;2023-07-29T12:17:03;2.63;;;1.73;;
75061;SDS011;63641;46.526;24.612;2023-07-29T12:19:32;1.92;;;1.70;;
75061;SDS011;63641;46.526;24.612;2023-07-29T12:22:01;1.92;;;1.73;;
75061;SDS011;63641;46.526;24.612;2023-07-29T12:24:32;3.67;;;1.70;;
75061;SDS011;63641;46.526;24.612;2023-07-29T12:27:00;2.10;;;1.75;;
75061;SDS011;63641;46.526;24.612;2023-07-29T12:29:27;2.20;;;1.73;;
75061;SDS011;63641;46.526;24.612;2023-07-29T12:32:01;3.55;;;2.13;;
75061;SDS011;63641;46.526;24.612;2023-07-29T12:34:30;2.95;;;1.50;;
75061;SDS011;63641;46.526;24.612;2023-07-29T12:36:58;1.73;;;1.63;;
75061;SDS011;63641;46.526;24.612;2023-07-29T12:39:26;2.13;;;1.80;;
75061;SDS011;63641;46.526;24.612;2023-07-29T12:41:54;4.60;;;1.83;;
75061;SDS011;63641;46.526;24.612;2023-07-29T12:44:23;2.83;;;1.70;;
75061;SDS011;63641;46.526;24.612;2023-07-29T12:46:50;3.25;;;1.42;;
75061;SDS011;63641;46.526;24.612;2023-07-29T12:49:18;1.92;;;1.73;;
75061;SDS011;63641;46.526;24.612;2023-07-29T12:51:49;2.17;;;1.73;;
75061;SDS011;63641;46.526;24.612;2023-07-29T12:54:16;6.20;;;2.05;;
75061;SDS011;63641;46.526;24.612;2023-07-29T12:56:42;3.05;;;1.60;;
75061;SDS011;63641;46.526;24.612;2023-07-29T12:59:09;4.55;;;1.90;;
75061;SDS011;63641;46.526;24.612;2023-07-29T13:01:36;4.47;;;1.80;;
75061;SDS011;63641;46.526;24.612;2023-07-29T13:04:02;2.10;;;1.85;;
75061;SDS011;63641;46.526;24.612;2023-07-29T13:06:29;2.50;;;1.75;;
75061;SDS011;63641;46.526;24.612;2023-07-29T13:08:58;4.22;;;1.90;;
75061;SDS011;63641;46.526;24.612;2023-07-29T13:11:25;5.05;;;2.28;;
75061;SDS011;63641;46.526;24.612;2023-07-29T13:13:52;2.95;;;2.00;;
75061;SDS011;63641;46.526;24.612;2023-07-29T13:16:19;2.97;;;1.73;;
75061;SDS011;63641;46.526;24.612;2023-07-29T13:18:46;1.88;;;1.77;;
75061;SDS011;63641;46.526;24.612;2023-07-29T13:21:12;2.65;;;1.90;;
75061;SDS011;63641;46.526;24.612;2023-07-29T13:23:39;3.55;;;1.90;;
75061;SDS011;63641;46.526;24.612;2023-07-29T13:26:06;3.05;;;1.90;;
75061;SDS011;63641;46.526;24.612;2023-07-29T13:28:32;6.10;;;2.40;;
75061;SDS011;63641;46.526;24.612;2023-07-29T13:31:00;4.03;;;1.77;;
75061;SDS011;63641;46.526;24.612;2023-07-29T13:33:27;2.47;;;1.73;;
75061;SDS011;63641;46.526;24.612;2023-07-29T13:35:54;3.05;;;1.73;;
75061;SDS011;63641;46.526;24.612;2023-07-29T13:38:21;2.90;;;2.05;;
75061;SDS011;63641;46.526;24.612;2023-07-29T13:40:47;2.40;;;1.85;;
75061;SDS011;63641;46.526;24.612;2023-07-29T13:43:17;1.88;;;1.70;;
75061;SDS011;63641;46.526;24.612;2023-07-29T13:45:44;2.38;;;1.75;;
75061;SDS011;63641;46.526;24.612;2023-07-29T13:48:11;2.40;;;1.75;;
75061;SDS011;63641;46.526;24.612;2023-07-29T13:50:38;3.28;;;1.75;;
75061;SDS011;63641;46.526;24.612;2023-07-29T13:53:04;5.82;;;2.08;;
75061;SDS011;63641;46.526;24.612;2023-07-29T13:55:31;4.38;;;2.15;;
75061;SDS011;63641;46.526;24.612;2023-07-29T13:57:58;3.55;;;1.90;;
75061;SDS011;63641;46.526;24.612;2023-07-29T14:00:25;2.58;;;1.88;;
75061;SDS011;63641;46.526;24.612;2023-07-29T14:02:52;2.20;;;1.80;;
75061;SDS011;63641;46.526;24.612;2023-07-29T14:05:18;3.13;;;1.98;;
75061;SDS011;63641;46.526;24.612;2023-07-29T14:07:45;2.20;;;2.00;;
75061;SDS011;63641;46.526;24.612;2023-07-29T14:10:12;2.67;;;2.30;;
75061;SDS011;63641;46.526;24.612;2023-07-29T14:12:39;1.80;;;1.70;;
75061;SDS011;63641;46.526;24.612;2023-07-29T14:15:06;3.08;;;1.92;;
75061;SDS011;63641;46.526;24.612;2023-07-29T14:17:33;2.40;;;2.17;;
75061;SDS011;63641;46.526;24.612;2023-07-29T14:19:59;3.35;;;1.65;;
75061;SDS011;63641;46.526;24.612;2023-07-29T14:22:26;1.88;;;1.73;;
75061;SDS011;63641;46.526;24.612;2023-07-29T14:24:53;2.00;;;1.80;;
75061;SDS011;63641;46.526;24.612;2023-07-29T14:27:20;2.67;;;1.77;;
75061;SDS011;63641;46.526;24.612;2023-07-29T14:29:47;3.20;;;1.98;;
75061;SDS011;63641;46.526;24.612;2023-07-29T14:32:13;1.83;;;1.65;;
75061;SDS011;63641;46.526;24.612;2023-07-29T14:34:40;4.88;;;2.00;;
75061;SDS011;63641;46.526;24.612;2023-07-29T14:37:07;3.47;;;1.80;;
75061;SDS011;63641;46.526;24.612;2023-07-29T14:39:34;2.95;;;1.80;;
75061;SDS011;63641;46.526;24.612;2023-07-29T14:42:00;3.33;;;2.53;;
75061;SDS011;63641;46.526;24.612;2023-07-29T14:44:27;4.75;;;2.20;;
75061;SDS011;63641;46.526;24.612;2023-07-29T14:46:54;2.20;;;2.00;;
75061;SDS011;63641;46.526;24.612;2023-07-29T14:49:21;2.63;;;2.10;;
75061;SDS011;63641;46.526;24.612;2023-07-29T14:51:49;1.88;;;1.77;;
75061;SDS011;63641;46.526;24.612;2023-07-29T14:54:16;3.50;;;2.00;;